sensor_id;sensor_type;location;lat;lon;timestamp;P1;durP1;ratioP1;P2;durP2;ratioP2
39880;SDS011;25554;44.954;10.068;2023-05-19T00:01:46;8.30;;;5.22;;
39880;SDS011;25554;44.954;10.068;2023-05-19T00:04:13;6.93;;;4.30;;
39880;SDS011;25554;44.954;10.068;2023-05-19T00:06:40;7.53;;;4.15;;
39880;SDS011;25554;44.954;10.068;2023-05-19T00:09:07;5.15;;;4.20;;
39880;SDS011;25554;44.954;10.068;2023-05-19T00:11:35;6.50;;;4.50;;
39880;SDS011;25554;44.954;10.068;2023-05-19T00:14:03;7.93;;;4.25;;
39880;SDS011;25554;44.954;10.068;2023-05-19T00:16:31;5.68;;;4.22;;
39880;SDS011;25554;44.954;10.068;2023-05-19T00:18:58;5.38;;;4.25;;
39880;SDS011;25554;44.954;10.068;2023-05-19T00:21:26;5.65;;;4.28;;
39880;SDS011;25554;44.954;10.068;2023-05-19T00:23:53;8.63;;;5.20;;
39880;SDS011;25554;44.954;10.068;2023-05-19T00:26:20;8.95;;;4.60;;
39880;SDS011;25554;44.954;10.068;2023-05-19T00:28:56;8.95;;;4.80;;
39880;SDS011;25554;44.954;10.068;2023-05-19T00:33:48;6.43;;;4.55;;
39880;SDS011;25554;44.954;10.068;2023-05-19T00:36:16;5.60;;;4.32;;
39880;SDS011;25554;44.954;10.068;2023-05-19T00:41:09;5.35;;;4.00;;
39880;SDS011;25554;44.954;10.068;2023-05-19T00:43:35;5.32;;;4.03;;
39880;SDS011;25554;44.954;10.068;2023-05-19T00:48:28;6.25;;;4.38;;
39880;SDS011;25554;44.954;10.068;2023-05-19T00:50:55;7.28;;;4.88;;
39880;SDS011;25554;44.954;10.068;2023-05-19T00:53:26;10.60;;;5.50;;
39880;SDS011;25554;44.954;10.068;2023-05-19T00:55:53;9.48;;;5.53;;
39880;SDS011;25554;44.954;10.068;2023-05-19T00:58:20;6.53;;;4.90;;
39880;SDS011;25554;44.954;10.068;2023-05-19T01:00:49;6.15;;;4.93;;
39880;SDS011;25554;44.954;10.068;2023-05-19T01:03:15;7.20;;;5.13;;
39880;SDS011;25554;44.954;10.068;2023-05-19T01:05:44;8.75;;;5.55;;
39880;SDS011;25554;44.954;10.068;2023-05-19T01:08:12;7.50;;;5.47;;
39880;SDS011;25554;44.954;10.068;2023-05-19T01:10:39;7.22;;;5.07;;
39880;SDS011;25554;44.954;10.068;2023-05-19T01:15:35;9.48;;;5.50;;
39880;SDS011;25554;44.954;10.068;2023-05-19T01:18:10;8.95;;;4.85;;
39880;SDS011;25554;44.954;10.068;2023-05-19T01:20:42;6.38;;;5.18;;
39880;SDS011;25554;44.954;10.068;2023-05-19T01:31:08;8.60;;;5.90;;
39880;SDS011;25554;44.954;10.068;2023-05-19T01:33:38;9.30;;;6.07;;
39880;SDS011;25554;44.954;10.068;2023-05-19T01:36:08;10.65;;;6.32;;
39880;SDS011;25554;44.954;10.068;2023-05-19T01:38:37;8.93;;;5.72;;
39880;SDS011;25554;44.954;10.068;2023-05-19T01:41:03;10.18;;;5.55;;
39880;SDS011;25554;44.954;10.068;2023-05-19T01:43:33;8.52;;;5.63;;
39880;SDS011;25554;44.954;10.068;2023-05-19T01:46:01;9.35;;;5.45;;
39880;SDS011;25554;44.954;10.068;2023-05-19T01:48:27;7.75;;;6.10;;
39880;SDS011;25554;44.954;10.068;2023-05-19T01:50:56;10.93;;;5.80;;
39880;SDS011;25554;44.954;10.068;2023-05-19T01:53:23;9.07;;;5.60;;
39880;SDS011;25554;44.954;10.068;2023-05-19T01:55:50;8.75;;;5.90;;
39880;SDS011;25554;44.954;10.068;2023-05-19T01:58:27;7.45;;;5.72;;
39880;SDS011;25554;44.954;10.068;2023-05-19T02:03:54;8.10;;;6.50;;
39880;SDS011;25554;44.954;10.068;2023-05-19T02:06:49;8.25;;;6.57;;
39880;SDS011;25554;44.954;10.068;2023-05-19T02:09:36;10.40;;;7.07;;
39880;SDS011;25554;44.954;10.068;2023-05-19T02:12:24;9.18;;;6.47;;
39880;SDS011;25554;44.954;10.068;2023-05-19T02:14:59;12.82;;;6.93;;
39880;SDS011;25554;44.954;10.068;2023-05-19T02:17:42;8.63;;;6.53;;
39880;SDS011;25554;44.954;10.068;2023-05-19T02:20:13;10.27;;;6.75;;
39880;SDS011;25554;44.954;10.068;2023-05-19T02:22:40;9.90;;;6.70;;
39880;SDS011;25554;44.954;10.068;2023-05-19T02:27:34;11.90;;;6.90;;
39880;SDS011;25554;44.954;10.068;2023-05-19T02:30:04;11.68;;;6.63;;
39880;SDS011;25554;44.954;10.068;2023-05-19T02:32:32;10.95;;;7.05;;
39880;SDS011;25554;44.954;10.068;2023-05-19T02:34:59;11.15;;;6.45;;
39880;SDS011;25554;44.954;10.068;2023-05-19T02:39:55;14.43;;;7.32;;
39880;SDS011;25554;44.954;10.068;2023-05-19T02:42:22;13.13;;;7.80;;
39880;SDS011;25554;44.954;10.068;2023-05-19T02:44:49;9.23;;;6.53;;
39880;SDS011;25554;44.954;10.068;2023-05-19T02:47:16;8.77;;;7.00;;
39880;SDS011;25554;44.954;10.068;2023-05-19T02:49:43;11.07;;;8.02;;
39880;SDS011;25554;44.954;10.068;2023-05-19T02:54:37;10.88;;;7.18;;
39880;SDS011;25554;44.954;10.068;2023-05-19T02:59:29;10.68;;;6.68;;
39880;SDS011;25554;44.954;10.068;2023-05-19T03:02:00;10.38;;;7.30;;
39880;SDS011;25554;44.954;10.068;2023-05-19T03:04:27;11.75;;;8.25;;
39880;SDS011;25554;44.954;10.068;2023-05-19T03:06:54;12.00;;;7.50;;
39880;SDS011;25554;44.954;10.068;2023-05-19T03:09:20;13.43;;;7.57;;
39880;SDS011;25554;44.954;10.068;2023-05-19T03:14:13;10.30;;;7.32;;
39880;SDS011;25554;44.954;10.068;2023-05-19T03:16:39;11.23;;;8.30;;
39880;SDS011;25554;44.954;10.068;2023-05-19T03:19:07;10.38;;;8.18;;
39880;SDS011;25554;44.954;10.068;2023-05-19T03:21:33;14.20;;;7.95;;
39880;SDS011;25554;44.954;10.068;2023-05-19T03:24:00;12.23;;;8.50;;
39880;SDS011;25554;44.954;10.068;2023-05-19T03:26:27;12.40;;;8.57;;
39880;SDS011;25554;44.954;10.068;2023-05-19T03:28:55;12.00;;;7.68;;
39880;SDS011;25554;44.954;10.068;2023-05-19T03:33:47;11.52;;;8.80;;
39880;SDS011;25554;44.954;10.068;2023-05-19T03:36:14;15.02;;;8.70;;
39880;SDS011;25554;44.954;10.068;2023-05-19T03:38:42;11.52;;;8.05;;
39880;SDS011;25554;44.954;10.068;2023-05-19T03:41:08;12.25;;;7.97;;
39880;SDS011;25554;44.954;10.068;2023-05-19T03:43:35;12.23;;;8.52;;
39880;SDS011;25554;44.954;10.068;2023-05-19T03:46:04;11.77;;;9.32;;
39880;SDS011;25554;44.954;10.068;2023-05-19T03:48:45;12.48;;;8.73;;
39880;SDS011;25554;44.954;10.068;2023-05-19T03:51:15;12.20;;;8.35;;
39880;SDS011;25554;44.954;10.068;2023-05-19T03:53:42;12.85;;;8.90;;
39880;SDS011;25554;44.954;10.068;2023-05-19T03:56:10;11.55;;;8.77;;
39880;SDS011;25554;44.954;10.068;2023-05-19T03:58:38;12.00;;;8.45;;
39880;SDS011;25554;44.954;10.068;2023-05-19T04:01:09;11.25;;;8.63;;
39880;SDS011;25554;44.954;10.068;2023-05-19T04:03:36;11.13;;;9.65;;
39880;SDS011;25554;44.954;10.068;2023-05-19T04:08:29;19.38;;;9.07;;
39880;SDS011;25554;44.954;10.068;2023-05-19T04:10:55;12.20;;;9.65;;
39880;SDS011;25554;44.954;10.068;2023-05-19T04:15:48;10.00;;;8.82;;
39880;SDS011;25554;44.954;10.068;2023-05-19T04:20:40;13.40;;;9.93;;
39880;SDS011;25554;44.954;10.068;2023-05-19T04:25:33;13.05;;;9.73;;
39880;SDS011;25554;44.954;10.068;2023-05-19T04:28:00;14.52;;;10.85;;
39880;SDS011;25554;44.954;10.068;2023-05-19T04:30:28;13.55;;;9.48;;
39880;SDS011;25554;44.954;10.068;2023-05-19T04:32:55;13.10;;;10.30;;
39880;SDS011;25554;44.954;10.068;2023-05-19T04:35:23;12.68;;;10.82;;
39880;SDS011;25554;44.954;10.068;2023-05-19T04:37:50;14.45;;;10.35;;
39880;SDS011;25554;44.954;10.068;2023-05-19T04:40:22;12.73;;;9.55;;
39880;SDS011;25554;44.954;10.068;2023-05-19T04:42:50;11.27;;;9.57;;
39880;SDS011;25554;44.954;10.068;2023-05-19T04:45:18;12.38;;;10.25;;
39880;SDS011;25554;44.954;10.068;2023-05-19T04:47:49;16.10;;;10.70;;
39880;SDS011;25554;44.954;10.068;2023-05-19T04:50:17;10.48;;;8.85;;
39880;SDS011;25554;44.954;10.068;2023-05-19T04:52:44;12.45;;;10.55;;
39880;SDS011;25554;44.954;10.068;2023-05-19T04:57:37;14.30;;;10.20;;
39880;SDS011;25554;44.954;10.068;2023-05-19T05:02:38;14.52;;;10.27;;
39880;SDS011;25554;44.954;10.068;2023-05-19T05:05:05;14.18;;;11.50;;
39880;SDS011;25554;44.954;10.068;2023-05-19T05:07:32;13.35;;;10.75;;
39880;SDS011;25554;44.954;10.068;2023-05-19T05:10:01;15.60;;;10.95;;
39880;SDS011;25554;44.954;10.068;2023-05-19T05:12:29;14.10;;;10.65;;
39880;SDS011;25554;44.954;10.068;2023-05-19T05:14:56;13.30;;;11.30;;
39880;SDS011;25554;44.954;10.068;2023-05-19T05:17:22;15.30;;;11.00;;
39880;SDS011;25554;44.954;10.068;2023-05-19T05:19:50;14.93;;;11.38;;
39880;SDS011;25554;44.954;10.068;2023-05-19T05:22:17;13.77;;;11.63;;
39880;SDS011;25554;44.954;10.068;2023-05-19T05:24:44;15.02;;;11.73;;
39880;SDS011;25554;44.954;10.068;2023-05-19T05:27:12;14.70;;;11.55;;
39880;SDS011;25554;44.954;10.068;2023-05-19T05:29:39;18.10;;;11.15;;
39880;SDS011;25554;44.954;10.068;2023-05-19T05:32:06;13.18;;;10.90;;
39880;SDS011;25554;44.954;10.068;2023-05-19T05:34:33;16.63;;;11.05;;
39880;SDS011;25554;44.954;10.068;2023-05-19T05:37:03;15.23;;;9.82;;
39880;SDS011;25554;44.954;10.068;2023-05-19T05:39:31;13.50;;;9.38;;
39880;SDS011;25554;44.954;10.068;2023-05-19T05:41:58;10.95;;;9.73;;
39880;SDS011;25554;44.954;10.068;2023-05-19T05:44:26;11.38;;;9.27;;
39880;SDS011;25554;44.954;10.068;2023-05-19T05:46:54;16.33;;;9.43;;
39880;SDS011;25554;44.954;10.068;2023-05-19T05:49:20;12.25;;;8.70;;
39880;SDS011;25554;44.954;10.068;2023-05-19T05:51:48;13.60;;;8.65;;
39880;SDS011;25554;44.954;10.068;2023-05-19T05:54:16;10.20;;;8.30;;
39880;SDS011;25554;44.954;10.068;2023-05-19T05:56:46;10.90;;;8.43;;
39880;SDS011;25554;44.954;10.068;2023-05-19T05:59:13;12.63;;;8.43;;
39880;SDS011;25554;44.954;10.068;2023-05-19T06:01:40;9.25;;;7.90;;
39880;SDS011;25554;44.954;10.068;2023-05-19T06:04:09;13.32;;;8.35;;
39880;SDS011;25554;44.954;10.068;2023-05-19T06:06:35;9.00;;;7.25;;
39880;SDS011;25554;44.954;10.068;2023-05-19T06:09:03;7.70;;;6.20;;
39880;SDS011;25554;44.954;10.068;2023-05-19T06:11:31;8.23;;;6.35;;
39880;SDS011;25554;44.954;10.068;2023-05-19T06:13:58;9.88;;;6.53;;
39880;SDS011;25554;44.954;10.068;2023-05-19T06:16:54;10.20;;;6.88;;
39880;SDS011;25554;44.954;10.068;2023-05-19T06:19:20;9.57;;;6.90;;
39880;SDS011;25554;44.954;10.068;2023-05-19T06:21:51;11.98;;;7.40;;
39880;SDS011;25554;44.954;10.068;2023-05-19T06:24:17;12.30;;;9.10;;
39880;SDS011;25554;44.954;10.068;2023-05-19T06:29:10;8.35;;;6.30;;
39880;SDS011;25554;44.954;10.068;2023-05-19T06:31:36;7.80;;;6.65;;
39880;SDS011;25554;44.954;10.068;2023-05-19T06:34:11;8.95;;;6.57;;
39880;SDS011;25554;44.954;10.068;2023-05-19T06:36:42;10.00;;;5.70;;
39880;SDS011;25554;44.954;10.068;2023-05-19T06:39:09;8.68;;;6.22;;
39880;SDS011;25554;44.954;10.068;2023-05-19T06:41:36;6.80;;;5.70;;
39880;SDS011;25554;44.954;10.068;2023-05-19T06:44:03;8.85;;;6.57;;
39880;SDS011;25554;44.954;10.068;2023-05-19T06:46:32;7.82;;;6.38;;
39880;SDS011;25554;44.954;10.068;2023-05-19T06:48:59;8.85;;;5.38;;
39880;SDS011;25554;44.954;10.068;2023-05-19T06:51:29;6.20;;;5.38;;
39880;SDS011;25554;44.954;10.068;2023-05-19T06:53:56;7.35;;;5.63;;
39880;SDS011;25554;44.954;10.068;2023-05-19T06:56:23;7.05;;;4.93;;
39880;SDS011;25554;44.954;10.068;2023-05-19T06:58:50;6.75;;;4.78;;
39880;SDS011;25554;44.954;10.068;2023-05-19T07:01:18;7.38;;;4.78;;
39880;SDS011;25554;44.954;10.068;2023-05-19T07:03:51;7.47;;;4.53;;
39880;SDS011;25554;44.954;10.068;2023-05-19T07:06:20;7.28;;;4.82;;
39880;SDS011;25554;44.954;10.068;2023-05-19T07:08:47;10.25;;;4.68;;
39880;SDS011;25554;44.954;10.068;2023-05-19T07:13:40;6.00;;;4.65;;
39880;SDS011;25554;44.954;10.068;2023-05-19T07:16:07;6.38;;;4.43;;
39880;SDS011;25554;44.954;10.068;2023-05-19T07:21:00;5.40;;;4.45;;
39880;SDS011;25554;44.954;10.068;2023-05-19T07:23:27;5.85;;;4.32;;
39880;SDS011;25554;44.954;10.068;2023-05-19T07:28:20;5.70;;;4.72;;
39880;SDS011;25554;44.954;10.068;2023-05-19T07:33:14;9.80;;;5.20;;
39880;SDS011;25554;44.954;10.068;2023-05-19T07:35:40;6.75;;;4.43;;
39880;SDS011;25554;44.954;10.068;2023-05-19T07:40:33;5.72;;;4.45;;
39880;SDS011;25554;44.954;10.068;2023-05-19T07:45:25;5.63;;;4.10;;
39880;SDS011;25554;44.954;10.068;2023-05-19T07:50:18;5.85;;;4.40;;
39880;SDS011;25554;44.954;10.068;2023-05-19T07:52:45;7.22;;;3.92;;
39880;SDS011;25554;44.954;10.068;2023-05-19T07:57:38;10.18;;;3.80;;
39880;SDS011;25554;44.954;10.068;2023-05-19T08:02:37;5.63;;;4.07;;
39880;SDS011;25554;44.954;10.068;2023-05-19T08:05:04;5.03;;;3.50;;
39880;SDS011;25554;44.954;10.068;2023-05-19T08:07:30;4.55;;;3.85;;
39880;SDS011;25554;44.954;10.068;2023-05-19T08:09:57;6.60;;;4.68;;
39880;SDS011;25554;44.954;10.068;2023-05-19T08:14:50;5.10;;;4.28;;
39880;SDS011;25554;44.954;10.068;2023-05-19T08:17:16;8.68;;;4.57;;
39880;SDS011;25554;44.954;10.068;2023-05-19T08:19:43;6.85;;;4.70;;
39880;SDS011;25554;44.954;10.068;2023-05-19T08:22:10;6.57;;;4.45;;
39880;SDS011;25554;44.954;10.068;2023-05-19T08:27:03;7.93;;;5.20;;
39880;SDS011;25554;44.954;10.068;2023-05-19T08:29:32;7.75;;;5.50;;
39880;SDS011;25554;44.954;10.068;2023-05-19T08:34:26;8.43;;;5.22;;
39880;SDS011;25554;44.954;10.068;2023-05-19T08:39:22;8.45;;;5.80;;
39880;SDS011;25554;44.954;10.068;2023-05-19T08:41:52;9.02;;;5.90;;
39880;SDS011;25554;44.954;10.068;2023-05-19T08:44:18;7.07;;;5.45;;
39880;SDS011;25554;44.954;10.068;2023-05-19T08:46:46;8.32;;;6.22;;
39880;SDS011;25554;44.954;10.068;2023-05-19T08:49:12;7.97;;;6.10;;
39880;SDS011;25554;44.954;10.068;2023-05-19T08:54:41;7.85;;;6.07;;
39880;SDS011;25554;44.954;10.068;2023-05-19T08:57:15;10.77;;;6.60;;
39880;SDS011;25554;44.954;10.068;2023-05-19T08:59:42;7.53;;;6.45;;
39880;SDS011;25554;44.954;10.068;2023-05-19T09:02:09;7.57;;;5.93;;
39880;SDS011;25554;44.954;10.068;2023-05-19T09:04:38;9.32;;;6.40;;
39880;SDS011;25554;44.954;10.068;2023-05-19T09:07:05;10.15;;;6.45;;
39880;SDS011;25554;44.954;10.068;2023-05-19T09:09:31;9.80;;;6.28;;
39880;SDS011;25554;44.954;10.068;2023-05-19T09:14:24;8.02;;;6.53;;
39880;SDS011;25554;44.954;10.068;2023-05-19T09:16:51;9.18;;;6.55;;
39880;SDS011;25554;44.954;10.068;2023-05-19T09:19:17;9.20;;;7.10;;
39880;SDS011;25554;44.954;10.068;2023-05-19T09:21:45;9.55;;;7.80;;
39880;SDS011;25554;44.954;10.068;2023-05-19T09:26:38;12.20;;;8.27;;
39880;SDS011;25554;44.954;10.068;2023-05-19T09:29:09;12.55;;;7.88;;
39880;SDS011;25554;44.954;10.068;2023-05-19T09:31:36;10.10;;;8.27;;
39880;SDS011;25554;44.954;10.068;2023-05-19T09:36:28;10.90;;;8.20;;
39880;SDS011;25554;44.954;10.068;2023-05-19T09:38:55;12.35;;;8.02;;
39880;SDS011;25554;44.954;10.068;2023-05-19T09:43:54;10.10;;;8.13;;
39880;SDS011;25554;44.954;10.068;2023-05-19T09:46:23;11.13;;;8.73;;
39880;SDS011;25554;44.954;10.068;2023-05-19T09:48:56;12.60;;;9.07;;
39880;SDS011;25554;44.954;10.068;2023-05-19T09:51:23;10.38;;;8.07;;
39880;SDS011;25554;44.954;10.068;2023-05-19T09:53:50;11.73;;;9.10;;
39880;SDS011;25554;44.954;10.068;2023-05-19T09:56:17;12.68;;;9.07;;
39880;SDS011;25554;44.954;10.068;2023-05-19T09:58:48;11.65;;;8.90;;
39880;SDS011;25554;44.954;10.068;2023-05-19T10:03:41;11.60;;;9.03;;
39880;SDS011;25554;44.954;10.068;2023-05-19T10:06:10;14.93;;;9.05;;
39880;SDS011;25554;44.954;10.068;2023-05-19T10:08:37;12.57;;;9.00;;
39880;SDS011;25554;44.954;10.068;2023-05-19T10:11:06;14.15;;;9.40;;
39880;SDS011;25554;44.954;10.068;2023-05-19T10:13:34;10.25;;;8.65;;
39880;SDS011;25554;44.954;10.068;2023-05-19T10:16:03;11.75;;;9.25;;
39880;SDS011;25554;44.954;10.068;2023-05-19T10:18:30;12.77;;;10.45;;
39880;SDS011;25554;44.954;10.068;2023-05-19T10:20:59;18.23;;;11.15;;
39880;SDS011;25554;44.954;10.068;2023-05-19T10:23:25;12.90;;;10.23;;
39880;SDS011;25554;44.954;10.068;2023-05-19T10:28:21;14.77;;;10.50;;
39880;SDS011;25554;44.954;10.068;2023-05-19T10:30:53;11.35;;;8.95;;
39880;SDS011;25554;44.954;10.068;2023-05-19T10:44:30;11.48;;;9.82;;
39880;SDS011;25554;44.954;10.068;2023-05-19T10:47:11;12.45;;;9.70;;
39880;SDS011;25554;44.954;10.068;2023-05-19T10:52:07;11.43;;;9.63;;
39880;SDS011;25554;44.954;10.068;2023-05-19T10:54:50;13.25;;;9.60;;
39880;SDS011;25554;44.954;10.068;2023-05-19T10:57:19;14.27;;;10.43;;
39880;SDS011;25554;44.954;10.068;2023-05-19T10:59:54;14.05;;;10.45;;
39880;SDS011;25554;44.954;10.068;2023-05-19T11:05:07;13.00;;;10.45;;
39880;SDS011;25554;44.954;10.068;2023-05-19T11:07:35;13.88;;;10.55;;
39880;SDS011;25554;44.954;10.068;2023-05-19T11:10:05;14.15;;;11.25;;
39880;SDS011;25554;44.954;10.068;2023-05-19T11:12:38;15.32;;;11.38;;
39880;SDS011;25554;44.954;10.068;2023-05-19T11:15:13;16.00;;;12.05;;
39880;SDS011;25554;44.954;10.068;2023-05-19T11:17:41;17.40;;;12.02;;
39880;SDS011;25554;44.954;10.068;2023-05-19T11:20:19;17.23;;;12.73;;
39880;SDS011;25554;44.954;10.068;2023-05-19T11:23:00;17.95;;;12.18;;
39880;SDS011;25554;44.954;10.068;2023-05-19T11:28:21;15.52;;;11.48;;
39880;SDS011;25554;44.954;10.068;2023-05-19T11:30:53;15.27;;;11.38;;
39880;SDS011;25554;44.954;10.068;2023-05-19T11:33:22;14.80;;;10.55;;
39880;SDS011;25554;44.954;10.068;2023-05-19T11:35:55;15.02;;;10.15;;
39880;SDS011;25554;44.954;10.068;2023-05-19T11:38:25;15.30;;;10.57;;
39880;SDS011;25554;44.954;10.068;2023-05-19T11:40:53;15.50;;;10.13;;
39880;SDS011;25554;44.954;10.068;2023-05-19T11:43:23;15.02;;;10.13;;
39880;SDS011;25554;44.954;10.068;2023-05-19T11:45:50;18.05;;;11.85;;
39880;SDS011;25554;44.954;10.068;2023-05-19T11:48:19;17.80;;;11.50;;
39880;SDS011;25554;44.954;10.068;2023-05-19T11:50:46;16.77;;;11.93;;
39880;SDS011;25554;44.954;10.068;2023-05-19T11:55:46;15.07;;;10.75;;
39880;SDS011;25554;44.954;10.068;2023-05-19T11:58:13;13.57;;;10.45;;
39880;SDS011;25554;44.954;10.068;2023-05-19T12:00:40;15.55;;;9.73;;
39880;SDS011;25554;44.954;10.068;2023-05-19T12:03:10;14.00;;;10.68;;
39880;SDS011;25554;44.954;10.068;2023-05-19T12:05:38;15.27;;;10.80;;
39880;SDS011;25554;44.954;10.068;2023-05-19T12:08:11;14.95;;;11.25;;
39880;SDS011;25554;44.954;10.068;2023-05-19T12:13:04;14.23;;;10.48;;
39880;SDS011;25554;44.954;10.068;2023-05-19T12:15:33;11.77;;;9.32;;
39880;SDS011;25554;44.954;10.068;2023-05-19T12:20:26;12.32;;;8.30;;
39880;SDS011;25554;44.954;10.068;2023-05-19T12:22:54;10.77;;;8.45;;
39880;SDS011;25554;44.954;10.068;2023-05-19T12:25:21;13.75;;;8.30;;
39880;SDS011;25554;44.954;10.068;2023-05-19T12:27:48;15.57;;;9.38;;
39880;SDS011;25554;44.954;10.068;2023-05-19T12:32:44;18.70;;;8.60;;
39880;SDS011;25554;44.954;10.068;2023-05-19T12:35:10;11.85;;;8.85;;
39880;SDS011;25554;44.954;10.068;2023-05-19T12:37:41;14.00;;;9.60;;
39880;SDS011;25554;44.954;10.068;2023-05-19T12:40:07;10.35;;;8.10;;
39880;SDS011;25554;44.954;10.068;2023-05-19T12:42:34;10.60;;;8.82;;
39880;SDS011;25554;44.954;10.068;2023-05-19T12:45:01;13.50;;;9.38;;
39880;SDS011;25554;44.954;10.068;2023-05-19T12:47:29;14.23;;;9.60;;
39880;SDS011;25554;44.954;10.068;2023-05-19T12:50:08;17.58;;;9.43;;
39880;SDS011;25554;44.954;10.068;2023-05-19T12:52:43;11.68;;;9.20;;
39880;SDS011;25554;44.954;10.068;2023-05-19T12:55:13;13.98;;;9.88;;
39880;SDS011;25554;44.954;10.068;2023-05-19T12:57:41;14.00;;;9.65;;
39880;SDS011;25554;44.954;10.068;2023-05-19T13:00:13;14.77;;;9.82;;
39880;SDS011;25554;44.954;10.068;2023-05-19T13:05:30;11.52;;;7.43;;
39880;SDS011;25554;44.954;10.068;2023-05-19T13:08:00;12.13;;;8.52;;
39880;SDS011;25554;44.954;10.068;2023-05-19T13:10:29;10.02;;;7.95;;
39880;SDS011;25554;44.954;10.068;2023-05-19T13:12:57;11.40;;;8.73;;
39880;SDS011;25554;44.954;10.068;2023-05-19T13:15:25;11.20;;;8.82;;
39880;SDS011;25554;44.954;10.068;2023-05-19T13:17:53;11.65;;;7.22;;
39880;SDS011;25554;44.954;10.068;2023-05-19T13:20:20;10.35;;;7.10;;
39880;SDS011;25554;44.954;10.068;2023-05-19T13:22:46;10.63;;;7.25;;
39880;SDS011;25554;44.954;10.068;2023-05-19T13:25:13;8.02;;;5.95;;
39880;SDS011;25554;44.954;10.068;2023-05-19T13:27:40;12.30;;;6.80;;
39880;SDS011;25554;44.954;10.068;2023-05-19T13:30:07;6.53;;;5.57;;
39880;SDS011;25554;44.954;10.068;2023-05-19T13:32:33;8.25;;;5.63;;
39880;SDS011;25554;44.954;10.068;2023-05-19T13:37:26;8.52;;;5.55;;
39880;SDS011;25554;44.954;10.068;2023-05-19T13:39:53;8.45;;;5.57;;
39880;SDS011;25554;44.954;10.068;2023-05-19T13:42:19;6.00;;;4.43;;
39880;SDS011;25554;44.954;10.068;2023-05-19T13:44:46;6.88;;;3.90;;
39880;SDS011;25554;44.954;10.068;2023-05-19T13:49:39;6.10;;;3.88;;
39880;SDS011;25554;44.954;10.068;2023-05-19T13:52:06;6.10;;;4.47;;
39880;SDS011;25554;44.954;10.068;2023-05-19T13:54:33;6.15;;;4.03;;
39880;SDS011;25554;44.954;10.068;2023-05-19T13:59:25;4.47;;;3.53;;
39880;SDS011;25554;44.954;10.068;2023-05-19T14:01:52;4.63;;;3.30;;
39880;SDS011;25554;44.954;10.068;2023-05-19T14:06:45;7.03;;;4.57;;
39880;SDS011;25554;44.954;10.068;2023-05-19T14:11:38;4.68;;;3.60;;
39880;SDS011;25554;44.954;10.068;2023-05-19T14:16:31;4.70;;;3.45;;
39880;SDS011;25554;44.954;10.068;2023-05-19T14:18:57;4.53;;;3.85;;
39880;SDS011;25554;44.954;10.068;2023-05-19T14:23:50;5.13;;;4.05;;
39880;SDS011;25554;44.954;10.068;2023-05-19T14:26:17;4.55;;;3.97;;
39880;SDS011;25554;44.954;10.068;2023-05-19T14:28:44;7.40;;;4.20;;
39880;SDS011;25554;44.954;10.068;2023-05-19T14:31:11;4.30;;;3.83;;
39880;SDS011;25554;44.954;10.068;2023-05-19T14:33:38;8.93;;;3.90;;
39880;SDS011;25554;44.954;10.068;2023-05-19T14:36:05;5.80;;;3.90;;
39880;SDS011;25554;44.954;10.068;2023-05-19T14:38:32;5.63;;;3.75;;
39880;SDS011;25554;44.954;10.068;2023-05-19T14:43:25;5.72;;;3.75;;
39880;SDS011;25554;44.954;10.068;2023-05-19T14:48:17;6.68;;;3.50;;
39880;SDS011;25554;44.954;10.068;2023-05-19T14:50:45;4.38;;;3.53;;
39880;SDS011;25554;44.954;10.068;2023-05-19T14:53:13;7.68;;;3.55;;
39880;SDS011;25554;44.954;10.068;2023-05-19T14:55:39;4.32;;;3.22;;
39880;SDS011;25554;44.954;10.068;2023-05-19T15:00:32;5.20;;;3.28;;
39880;SDS011;25554;44.954;10.068;2023-05-19T15:02:59;7.85;;;3.80;;
39880;SDS011;25554;44.954;10.068;2023-05-19T15:05:25;5.45;;;3.40;;
39880;SDS011;25554;44.954;10.068;2023-05-19T15:10:18;4.38;;;2.97;;
39880;SDS011;25554;44.954;10.068;2023-05-19T15:12:48;8.23;;;3.97;;
39880;SDS011;25554;44.954;10.068;2023-05-19T15:17:44;7.32;;;3.70;;
39880;SDS011;25554;44.954;10.068;2023-05-19T15:20:12;5.30;;;3.55;;
39880;SDS011;25554;44.954;10.068;2023-05-19T15:25:05;5.88;;;4.18;;
39880;SDS011;25554;44.954;10.068;2023-05-19T15:27:33;8.60;;;3.95;;
39880;SDS011;25554;44.954;10.068;2023-05-19T15:30:03;5.88;;;4.20;;
39880;SDS011;25554;44.954;10.068;2023-05-19T15:32:30;5.38;;;3.58;;
39880;SDS011;25554;44.954;10.068;2023-05-19T15:34:58;8.32;;;4.18;;
39880;SDS011;25554;44.954;10.068;2023-05-19T15:39:50;5.70;;;4.50;;
39880;SDS011;25554;44.954;10.068;2023-05-19T15:42:17;6.65;;;4.28;;
39880;SDS011;25554;44.954;10.068;2023-05-19T15:47:10;9.07;;;4.87;;
39880;SDS011;25554;44.954;10.068;2023-05-19T15:52:03;6.57;;;5.03;;
39880;SDS011;25554;44.954;10.068;2023-05-19T15:54:29;7.57;;;5.43;;
39880;SDS011;25554;44.954;10.068;2023-05-19T15:59:22;8.52;;;5.20;;
39880;SDS011;25554;44.954;10.068;2023-05-19T16:04:16;6.80;;;4.95;;
39880;SDS011;25554;44.954;10.068;2023-05-19T16:09:17;7.65;;;4.90;;
39880;SDS011;25554;44.954;10.068;2023-05-19T16:12:02;5.68;;;4.53;;
39880;SDS011;25554;44.954;10.068;2023-05-19T16:18:45;6.13;;;4.90;;
39880;SDS011;25554;44.954;10.068;2023-05-19T16:27:28;6.45;;;3.72;;
39880;SDS011;25554;44.954;10.068;2023-05-19T16:29:55;5.85;;;3.35;;
39880;SDS011;25554;44.954;10.068;2023-05-19T16:34:50;2.78;;;2.20;;
39880;SDS011;25554;44.954;10.068;2023-05-19T16:37:23;2.83;;;1.52;;
39880;SDS011;25554;44.954;10.068;2023-05-19T16:42:15;5.85;;;1.55;;
39880;SDS011;25554;44.954;10.068;2023-05-19T16:47:08;2.28;;;1.52;;
39880;SDS011;25554;44.954;10.068;2023-05-19T16:52:00;1.45;;;1.33;;
39880;SDS011;25554;44.954;10.068;2023-05-19T16:56:53;4.15;;;1.65;;
39880;SDS011;25554;44.954;10.068;2023-05-19T17:01:45;2.05;;;1.60;;
39880;SDS011;25554;44.954;10.068;2023-05-19T17:06:38;2.97;;;1.92;;
39880;SDS011;25554;44.954;10.068;2023-05-19T17:09:05;2.35;;;1.17;;
39880;SDS011;25554;44.954;10.068;2023-05-19T17:11:31;3.13;;;1.30;;
39880;SDS011;25554;44.954;10.068;2023-05-19T17:16:24;1.80;;;1.20;;
39880;SDS011;25554;44.954;10.068;2023-05-19T17:21:16;1.95;;;1.10;;
39880;SDS011;25554;44.954;10.068;2023-05-19T17:23:43;1.95;;;1.20;;
39880;SDS011;25554;44.954;10.068;2023-05-19T17:28:36;2.33;;;1.25;;
39880;SDS011;25554;44.954;10.068;2023-05-19T17:33:33;4.25;;;1.30;;
39880;SDS011;25554;44.954;10.068;2023-05-19T17:36:01;3.85;;;1.67;;
39880;SDS011;25554;44.954;10.068;2023-05-19T17:38:28;3.03;;;1.45;;
39880;SDS011;25554;44.954;10.068;2023-05-19T17:40:57;1.40;;;1.23;;
39880;SDS011;25554;44.954;10.068;2023-05-19T17:43:27;3.45;;;1.50;;
39880;SDS011;25554;44.954;10.068;2023-05-19T17:45:53;3.03;;;2.10;;
39880;SDS011;25554;44.954;10.068;2023-05-19T17:50:46;2.53;;;1.35;;
39880;SDS011;25554;44.954;10.068;2023-05-19T17:53:15;2.65;;;1.30;;
39880;SDS011;25554;44.954;10.068;2023-05-19T17:55:43;2.70;;;1.40;;
39880;SDS011;25554;44.954;10.068;2023-05-19T17:58:16;2.55;;;1.65;;
39880;SDS011;25554;44.954;10.068;2023-05-19T18:00:43;3.67;;;1.60;;
39880;SDS011;25554;44.954;10.068;2023-05-19T18:03:10;7.65;;;1.67;;
39880;SDS011;25554;44.954;10.068;2023-05-19T18:05:37;1.80;;;1.70;;
39880;SDS011;25554;44.954;10.068;2023-05-19T18:08:05;5.25;;;1.83;;
39880;SDS011;25554;44.954;10.068;2023-05-19T18:10:37;3.20;;;1.77;;
39880;SDS011;25554;44.954;10.068;2023-05-19T18:13:07;2.05;;;1.70;;